Аэропорт: Мурманск. Мурманск

ICAO: ULMM

METAR:
2019/01/21 23:00
ULMM 212300Z 17001MPS 9999 SCT002 M22/M25 Q1004 R31/490139 NOSIG RMK QBB070 OBST OBSC QFE746
METAR:
2019/01/21 21:24
TAF TAF ULMM 211957Z 2121/2221 28003G08MPS 4000 -SHSN BR BKN012CB 
      TEMPO 2121/2218 22003MPS 0300 +SHSN FZFG BKN002 BKN011CB 
      TEMPO 2218/2221 20002MPS 3100 -SHSN BKN011CB